Aviation Digital Data Service (ADDS)

Output produced by METARs form (0820 UTC 18 February 2019)
found at http://www.aviationweather.gov/metar/data/
 
METAR text: LTBA 180750Z 24005KT 180V280 CAVOK 08/05 Q1025 NOSIG RMK RWY17L VRB06KT RWY05 VRB02KT RWY23 22006KT
Conditions at: LTBA (ISTANBUL/ATATURK, TR) observed 0750 UTC 18 February 2019
Temperature: 8.0°C (46°F)
Dewpoint: 5.0°C (41°F) [RH = 81%]
Pressure (altimeter): 30.27 inches Hg (1025.0 mb)
Winds: from the WSW (240 degrees) at 6 MPH (5 knots; 2.6 m/s)
Visibility: 6 or more miles (10+ km)
Ceiling: ceiling and visibility are OK
Clouds: unknown
Weather: no significant weather observed at this time

METAR text: LTBA 180720Z 22004KT 160V260 CAVOK 08/05 Q1025 NOSIG RMK RWY17L 21005KT RWY05 VRB01KT RWY23 22005KT
Conditions at: LTBA (ISTANBUL/ATATURK, TR) observed 0720 UTC 18 February 2019
Temperature: 8.0°C (46°F)
Dewpoint: 5.0°C (41°F) [RH = 81%]
Pressure (altimeter): 30.27 inches Hg (1025.0 mb)
Winds: from the SW (220 degrees) at 5 MPH (4 knots; 2.1 m/s)
Visibility: 6 or more miles (10+ km)
Ceiling: ceiling and visibility are OK
Clouds: unknown
Weather: no significant weather observed at this time

METAR text: LTBA 180650Z 23004KT 190V270 8000 NSC 07/04 Q1025 NOSIG RMK RWY17L 21004KT RWY05 00000KT RWY23 22004KT 190V250
Conditions at: LTBA (ISTANBUL/ATATURK, TR) observed 0650 UTC 18 February 2019
Temperature: 7.0°C (45°F)
Dewpoint: 4.0°C (39°F) [RH = 81%]
Pressure (altimeter): 30.27 inches Hg (1025.0 mb)
Winds: from the SW (230 degrees) at 5 MPH (4 knots; 2.1 m/s)
Visibility: 5 miles ( 8 km)
Ceiling: at least 12,000 feet AGL
Clouds: sky clear below 12,000 feet AGL
Weather: no significant weather observed at this time

METAR text: LTBA 180620Z 24003KT 220V280 8000 NSC 07/04 Q1025 NOSIG RMK RWY17L 22002KT RWY05 00000KT RWY23 21002KT
Conditions at: LTBA (ISTANBUL/ATATURK, TR) observed 0620 UTC 18 February 2019
Temperature: 7.0°C (45°F)
Dewpoint: 4.0°C (39°F) [RH = 81%]
Pressure (altimeter): 30.27 inches Hg (1025.0 mb)
Winds: from the WSW (240 degrees) at 3 MPH (3 knots; 1.5 m/s)
Visibility: 5 miles ( 8 km)
Ceiling: at least 12,000 feet AGL
Clouds: sky clear below 12,000 feet AGL
Weather: no significant weather observed at this time

METAR text: LTBA 180550Z VRB02KT 7000 NSC 06/03 Q1025 NOSIG RMK RWY17L 22002KT RWY05 00000KT RWY23 VRB02KT
Conditions at: LTBA (ISTANBUL/ATATURK, TR) observed 0550 UTC 18 February 2019
Temperature: 6.0°C (43°F)
Dewpoint: 3.0°C (37°F) [RH = 81%]
Pressure (altimeter): 30.27 inches Hg (1025.0 mb)
Winds: variable direction winds at 2 MPH (2 knots; 1.0 m/s)
Visibility: 4 miles ( 7 km)
Ceiling: at least 12,000 feet AGL
Clouds: sky clear below 12,000 feet AGL
Weather: no significant weather observed at this time

METAR text: LTBA 180520Z VRB02KT 7000 NSC 05/03 Q1025 NOSIG RMK RWY17L 00000KT RWY05 00000KT RWY23 00000KT
Conditions at: LTBA (ISTANBUL/ATATURK, TR) observed 0520 UTC 18 February 2019
Temperature: 5.0°C (41°F)
Dewpoint: 3.0°C (37°F) [RH = 87%]
Pressure (altimeter): 30.27 inches Hg (1025.0 mb)
Winds: variable direction winds at 2 MPH (2 knots; 1.0 m/s)
Visibility: 4 miles ( 7 km)
Ceiling: at least 12,000 feet AGL
Clouds: sky clear below 12,000 feet AGL
Weather: no significant weather observed at this time

METAR text: LTBA 180450Z VRB01KT 7000 NSC 05/02 Q1024 NOSIG RMK RWY17L 00000KT RWY05 00000KT RWY23 20001KT
Conditions at: LTBA (ISTANBUL/ATATURK, TR) observed 0450 UTC 18 February 2019
Temperature: 5.0°C (41°F)
Dewpoint: 2.0°C (36°F) [RH = 81%]
Pressure (altimeter): 30.24 inches Hg (1024.0 mb)
Winds: variable direction winds at 1 MPH (1 knots; 0.5 m/s)
Visibility: 4 miles ( 7 km)
Ceiling: at least 12,000 feet AGL
Clouds: sky clear below 12,000 feet AGL
Weather: no significant weather observed at this time

METAR text: LTBA 180420Z VRB01KT CAVOK 04/01 Q1024 NOSIG RMK RWY17L 00000KT RWY05 00000KT RWY23 17002KT
Conditions at: LTBA (ISTANBUL/ATATURK, TR) observed 0420 UTC 18 February 2019
Temperature: 4.0°C (39°F)
Dewpoint: 1.0°C (34°F) [RH = 81%]
Pressure (altimeter): 30.24 inches Hg (1024.0 mb)
Winds: variable direction winds at 1 MPH (1 knots; 0.5 m/s)
Visibility: 6 or more miles (10+ km)
Ceiling: ceiling and visibility are OK
Clouds: unknown
Weather: no significant weather observed at this time

METAR text: LTBA 180350Z VRB01KT CAVOK 03/01 Q1024 NOSIG RMK RWY17L 00000KT RWY05 00000KT RWY23 00000KT
Conditions at: LTBA (ISTANBUL/ATATURK, TR) observed 0350 UTC 18 February 2019
Temperature: 3.0°C (37°F)
Dewpoint: 1.0°C (34°F) [RH = 87%]
Pressure (altimeter): 30.24 inches Hg (1024.0 mb)
Winds: variable direction winds at 1 MPH (1 knots; 0.5 m/s)
Visibility: 6 or more miles (10+ km)
Ceiling: ceiling and visibility are OK
Clouds: unknown
Weather: no significant weather observed at this time

METAR text: LTBA 180320Z VRB01KT CAVOK 03/01 Q1024 NOSIG RMK RWY17L 00000KT RWY05 00000KT RWY23 VRB01KT
Conditions at: LTBA (ISTANBUL/ATATURK, TR) observed 0320 UTC 18 February 2019
Temperature: 3.0°C (37°F)
Dewpoint: 1.0°C (34°F) [RH = 87%]
Pressure (altimeter): 30.24 inches Hg (1024.0 mb)
Winds: variable direction winds at 1 MPH (1 knots; 0.5 m/s)
Visibility: 6 or more miles (10+ km)
Ceiling: ceiling and visibility are OK
Clouds: unknown
Weather: no significant weather observed at this time

METAR text: LTBA 180250Z 34002KT CAVOK 02/00 Q1024 NOSIG RMK RWY17L 00000KT RWY05 00000KT RWY23 VRB01KT
Conditions at: LTBA (ISTANBUL/ATATURK, TR) observed 0250 UTC 18 February 2019
Temperature: 2.0°C (36°F)
Dewpoint: 0.0°C (32°F) [RH = 87%]
Pressure (altimeter): 30.24 inches Hg (1024.0 mb)
Winds: from the NNW (340 degrees) at 2 MPH (2 knots; 1.0 m/s)
Visibility: 6 or more miles (10+ km)
Ceiling: ceiling and visibility are OK
Clouds: unknown
Weather: no significant weather observed at this time

METAR text: LTBA 180220Z 34002KT CAVOK 02/00 Q1024 NOSIG RMK RWY17L 00000KT RWY05 00000KT RWY23 21001KT
Conditions at: LTBA (ISTANBUL/ATATURK, TR) observed 0220 UTC 18 February 2019
Temperature: 2.0°C (36°F)
Dewpoint: 0.0°C (32°F) [RH = 87%]
Pressure (altimeter): 30.24 inches Hg (1024.0 mb)
Winds: from the NNW (340 degrees) at 2 MPH (2 knots; 1.0 m/s)
Visibility: 6 or more miles (10+ km)
Ceiling: ceiling and visibility are OK
Clouds: unknown
Weather: no significant weather observed at this time

METAR text: LTBA 180150Z 35003KT CAVOK 02/00 Q1024 NOSIG RMK RWY17L 36003KT RWY05 VRB01KT RWY23 35003KT
Conditions at: LTBA (ISTANBUL/ATATURK, TR) observed 0150 UTC 18 February 2019
Temperature: 2.0°C (36°F)
Dewpoint: 0.0°C (32°F) [RH = 87%]
Pressure (altimeter): 30.24 inches Hg (1024.0 mb)
Winds: from the N (350 degrees) at 3 MPH (3 knots; 1.5 m/s)
Visibility: 6 or more miles (10+ km)
Ceiling: ceiling and visibility are OK
Clouds: unknown
Weather: no significant weather observed at this time

METAR text: LTBA 180120Z 34004KT CAVOK 02/M00 Q1024 NOSIG RMK RWY17L 00000KT RWY05 00000KT RWY23 33004KT
Conditions at: LTBA (ISTANBUL/ATATURK, TR) observed 0120 UTC 18 February 2019
Temperature: 2.0°C (36°F)
Dewpoint: 0.0°C (32°F) [RH = 87%]
Pressure (altimeter): 30.24 inches Hg (1024.0 mb)
Winds: from the NNW (340 degrees) at 5 MPH (4 knots; 2.1 m/s)
Visibility: 6 or more miles (10+ km)
Ceiling: ceiling and visibility are OK
Clouds: unknown
Weather: no significant weather observed at this time

METAR text: LTBA 180050Z VRB01KT CAVOK 03/M00 Q1024 NOSIG RMK RWY17L 00000KT RWY05 00000KT RWY23 00000KT
Conditions at: LTBA (ISTANBUL/ATATURK, TR) observed 0050 UTC 18 February 2019
Temperature: 3.0°C (37°F)
Dewpoint: 0.0°C (32°F) [RH = 81%]
Pressure (altimeter): 30.24 inches Hg (1024.0 mb)
Winds: variable direction winds at 1 MPH (1 knots; 0.5 m/s)
Visibility: 6 or more miles (10+ km)
Ceiling: ceiling and visibility are OK
Clouds: unknown
Weather: no significant weather observed at this time

METAR text: LTBA 180020Z 00000KT CAVOK 05/01 Q1025 NOSIG RMK RWY17L 00000KT RWY05 00000KT RWY23 33002KT
Conditions at: LTBA (ISTANBUL/ATATURK, TR) observed 0020 UTC 18 February 2019
Temperature: 5.0°C (41°F)
Dewpoint: 1.0°C (34°F) [RH = 75%]
Pressure (altimeter): 30.27 inches Hg (1025.0 mb)
Winds: calm
Visibility: 6 or more miles (10+ km)
Ceiling: ceiling and visibility are OK
Clouds: unknown
Weather: no significant weather observed at this time

METAR text: LTBA 172350Z 30003KT 270V340 CAVOK 04/00 Q1025 NOSIG RMK RWY17L 00000KT RWY05 00000KT RWY23 35003KT 330V030
Conditions at: LTBA (ISTANBUL/ATATURK, TR) observed 2350 UTC 17 February 2019
Temperature: 4.0°C (39°F)
Dewpoint: 0.0°C (32°F) [RH = 75%]
Pressure (altimeter): 30.27 inches Hg (1025.0 mb)
Winds: from the WNW (300 degrees) at 3 MPH (3 knots; 1.5 m/s)
Visibility: 6 or more miles (10+ km)
Ceiling: ceiling and visibility are OK
Clouds: unknown
Weather: no significant weather observed at this time

METAR text: LTBA 172320Z 32003KT 260V010 CAVOK 04/00 Q1025 NOSIG RMK RWY17L 00000KT RWY05 00000KT RWY23 VRB02KT
Conditions at: LTBA (ISTANBUL/ATATURK, TR) observed 2320 UTC 17 February 2019
Temperature: 4.0°C (39°F)
Dewpoint: 0.0°C (32°F) [RH = 75%]
Pressure (altimeter): 30.27 inches Hg (1025.0 mb)
Winds: from the NW (320 degrees) at 3 MPH (3 knots; 1.5 m/s)
Visibility: 6 or more miles (10+ km)
Ceiling: ceiling and visibility are OK
Clouds: unknown
Weather: no significant weather observed at this time

METAR text: LTBA 172250Z 32003KT CAVOK 04/01 Q1025 NOSIG RMK RWY17L 00000KT RWY05 00000KT RWY23 34001KT
Conditions at: LTBA (ISTANBUL/ATATURK, TR) observed 2250 UTC 17 February 2019
Temperature: 4.0°C (39°F)
Dewpoint: 1.0°C (34°F) [RH = 81%]
Pressure (altimeter): 30.27 inches Hg (1025.0 mb)
Winds: from the NW (320 degrees) at 3 MPH (3 knots; 1.5 m/s)
Visibility: 6 or more miles (10+ km)
Ceiling: ceiling and visibility are OK
Clouds: unknown
Weather: no significant weather observed at this time

METAR text: LTBA 172220Z 30002KT CAVOK 04/01 Q1025 NOSIG RMK RWY17L 00000KT RWY05 00000KT RWY23 31003KT 270V330
Conditions at: LTBA (ISTANBUL/ATATURK, TR) observed 2220 UTC 17 February 2019
Temperature: 4.0°C (39°F)
Dewpoint: 1.0°C (34°F) [RH = 81%]
Pressure (altimeter): 30.27 inches Hg (1025.0 mb)
Winds: from the WNW (300 degrees) at 2 MPH (2 knots; 1.0 m/s)
Visibility: 6 or more miles (10+ km)
Ceiling: ceiling and visibility are OK
Clouds: unknown
Weather: no significant weather observed at this time

METAR text: LTBA 172150Z 33004KT CAVOK 03/00 Q1025 NOSIG RMK RWY17L 34003KT RWY05 30003KT RWY23 34004KT
Conditions at: LTBA (ISTANBUL/ATATURK, TR) observed 2150 UTC 17 February 2019
Temperature: 3.0°C (37°F)
Dewpoint: 0.0°C (32°F) [RH = 81%]
Pressure (altimeter): 30.27 inches Hg (1025.0 mb)
Winds: from the NNW (330 degrees) at 5 MPH (4 knots; 2.1 m/s)
Visibility: 6 or more miles (10+ km)
Ceiling: ceiling and visibility are OK
Clouds: unknown
Weather: no significant weather observed at this time

METAR text: LTBA 172120Z 33005KT CAVOK 04/01 Q1025 NOSIG RMK RWY17L 34003KT RWY05 VRB01KT RWY23 33004KT
Conditions at: LTBA (ISTANBUL/ATATURK, TR) observed 2120 UTC 17 February 2019
Temperature: 4.0°C (39°F)
Dewpoint: 1.0°C (34°F) [RH = 81%]
Pressure (altimeter): 30.27 inches Hg (1025.0 mb)
Winds: from the NNW (330 degrees) at 6 MPH (5 knots; 2.6 m/s)
Visibility: 6 or more miles (10+ km)
Ceiling: ceiling and visibility are OK
Clouds: unknown
Weather: no significant weather observed at this time

METAR text: LTBA 172050Z 35004KT 330V030 8000 NSC 04/01 Q1025 NOSIG RMK RWY17L 35002KT RWY05 00000KT RWY23 35003KT 320V020
Conditions at: LTBA (ISTANBUL/ATATURK, TR) observed 2050 UTC 17 February 2019
Temperature: 4.0°C (39°F)
Dewpoint: 1.0°C (34°F) [RH = 81%]
Pressure (altimeter): 30.27 inches Hg (1025.0 mb)
Winds: from the N (350 degrees) at 5 MPH (4 knots; 2.1 m/s)
Visibility: 5 miles ( 8 km)
Ceiling: at least 12,000 feet AGL
Clouds: sky clear below 12,000 feet AGL
Weather: no significant weather observed at this time

METAR text: LTBA 172020Z 34003KT CAVOK 05/01 Q1025 NOSIG RMK RWY17L 35001KT RWY05 VRB02KT RWY23 VRB04KT
Conditions at: LTBA (ISTANBUL/ATATURK, TR) observed 2020 UTC 17 February 2019
Temperature: 5.0°C (41°F)
Dewpoint: 1.0°C (34°F) [RH = 75%]
Pressure (altimeter): 30.27 inches Hg (1025.0 mb)
Winds: from the NNW (340 degrees) at 3 MPH (3 knots; 1.5 m/s)
Visibility: 6 or more miles (10+ km)
Ceiling: ceiling and visibility are OK
Clouds: unknown
Weather: no significant weather observed at this time

METAR text: LTBA 171950Z 32004KT CAVOK 05/00 Q1025 NOSIG RMK RWY17L 34003KT RWY05 00000KT RWY23 VRB02KT
Conditions at: LTBA (ISTANBUL/ATATURK, TR) observed 1950 UTC 17 February 2019
Temperature: 5.0°C (41°F)
Dewpoint: 0.0°C (32°F) [RH = 70%]
Pressure (altimeter): 30.27 inches Hg (1025.0 mb)
Winds: from the NW (320 degrees) at 5 MPH (4 knots; 2.1 m/s)
Visibility: 6 or more miles (10+ km)
Ceiling: ceiling and visibility are OK
Clouds: unknown
Weather: no significant weather observed at this time

METAR text: LTBA 171920Z VRB04KT CAVOK 07/01 Q1025 NOSIG RMK RWY17L 00000KT RWY05 00000KT RWY23 05003KT
Conditions at: LTBA (ISTANBUL/ATATURK, TR) observed 1920 UTC 17 February 2019
Temperature: 7.0°C (45°F)
Dewpoint: 1.0°C (34°F) [RH = 66%]
Pressure (altimeter): 30.27 inches Hg (1025.0 mb)
Winds: variable direction winds at 5 MPH (4 knots; 2.1 m/s)
Visibility: 6 or more miles (10+ km)
Ceiling: ceiling and visibility are OK
Clouds: unknown
Weather: no significant weather observed at this time

METAR text: LTBA 171850Z 36005KT 310V100 CAVOK 06/01 Q1025 NOSIG RMK RWY17L 02004KT RWY05 03002KT RWY23 03004KT
Conditions at: LTBA (ISTANBUL/ATATURK, TR) observed 1850 UTC 17 February 2019
Temperature: 6.0°C (43°F)
Dewpoint: 1.0°C (34°F) [RH = 70%]
Pressure (altimeter): 30.27 inches Hg (1025.0 mb)
Winds: from the N (360 degrees) at 6 MPH (5 knots; 2.6 m/s)
Visibility: 6 or more miles (10+ km)
Ceiling: ceiling and visibility are OK
Clouds: unknown
Weather: no significant weather observed at this time

METAR text: LTBA 171820Z 06005KT 010V160 CAVOK 07/01 Q1025 NOSIG RMK RWY17L 06003KT 040V100 RWY05 04005KT RWY23 05006KT
Conditions at: LTBA (ISTANBUL/ATATURK, TR) observed 1820 UTC 17 February 2019
Temperature: 7.0°C (45°F)
Dewpoint: 1.0°C (34°F) [RH = 66%]
Pressure (altimeter): 30.27 inches Hg (1025.0 mb)
Winds: from the ENE (60 degrees) at 6 MPH (5 knots; 2.6 m/s)
Visibility: 6 or more miles (10+ km)
Ceiling: ceiling and visibility are OK
Clouds: unknown
Weather: no significant weather observed at this time

METAR text: LTBA 171750Z 05006KT 360V140 CAVOK 07/00 Q1025 NOSIG RMK RWY17L 04004KT RWY05 05006KT RWY23 06006KT
Conditions at: LTBA (ISTANBUL/ATATURK, TR) observed 1750 UTC 17 February 2019
Temperature: 7.0°C (45°F)
Dewpoint: 0.0°C (32°F) [RH = 61%]
Pressure (altimeter): 30.27 inches Hg (1025.0 mb)
Winds: from the NE (50 degrees) at 7 MPH (6 knots; 3.1 m/s)
Visibility: 6 or more miles (10+ km)
Ceiling: ceiling and visibility are OK
Clouds: unknown
Weather: no significant weather observed at this time

METAR text: LTBA 171720Z 06005KT 360V120 CAVOK 08/01 Q1025 NOSIG RMK RWY17L 05004KT 020V080 RWY05 05004KT RWY23 06006KT
Conditions at: LTBA (ISTANBUL/ATATURK, TR) observed 1720 UTC 17 February 2019
Temperature: 8.0°C (46°F)
Dewpoint: 1.0°C (34°F) [RH = 61%]
Pressure (altimeter): 30.27 inches Hg (1025.0 mb)
Winds: from the ENE (60 degrees) at 6 MPH (5 knots; 2.6 m/s)
Visibility: 6 or more miles (10+ km)
Ceiling: ceiling and visibility are OK
Clouds: unknown
Weather: no significant weather observed at this time

METAR text: LTBA 171650Z 02008KT 350V130 CAVOK 07/01 Q1025 NOSIG RMK RWY17L 03005KT RWY05 35007KT RWY23 05006KT
Conditions at: LTBA (ISTANBUL/ATATURK, TR) observed 1650 UTC 17 February 2019
Temperature: 7.0°C (45°F)
Dewpoint: 1.0°C (34°F) [RH = 66%]
Pressure (altimeter): 30.27 inches Hg (1025.0 mb)
Winds: from the NNE (20 degrees) at 9 MPH (8 knots; 4.1 m/s)
Visibility: 6 or more miles (10+ km)
Ceiling: ceiling and visibility are OK
Clouds: unknown
Weather: no significant weather observed at this time

METAR text: LTBA 171620Z 04007KT CAVOK 09/01 Q1025 NOSIG RMK RWY17L 01007KT RWY05 01009KT RWY23 03008KT
Conditions at: LTBA (ISTANBUL/ATATURK, TR) observed 1620 UTC 17 February 2019
Temperature: 9.0°C (48°F)
Dewpoint: 1.0°C (34°F) [RH = 57%]
Pressure (altimeter): 30.27 inches Hg (1025.0 mb)
Winds: from the NE (40 degrees) at 8 MPH (7 knots; 3.6 m/s)
Visibility: 6 or more miles (10+ km)
Ceiling: ceiling and visibility are OK
Clouds: unknown
Weather: no significant weather observed at this time

METAR text: LTBA 171550Z 36010KT CAVOK 07/01 Q1025 NOSIG RMK RWY17L 01007KT RWY05 36007KT 320V030 RWY23 04007KT 360V070
Conditions at: LTBA (ISTANBUL/ATATURK, TR) observed 1550 UTC 17 February 2019
Temperature: 7.0°C (45°F)
Dewpoint: 1.0°C (34°F) [RH = 66%]
Pressure (altimeter): 30.27 inches Hg (1025.0 mb)
Winds: from the N (360 degrees) at 12 MPH (10 knots; 5.1 m/s)
Visibility: 6 or more miles (10+ km)
Ceiling: ceiling and visibility are OK
Clouds: unknown
Weather: no significant weather observed at this time

METAR text: LTBA 171520Z 02007KT 340V070 CAVOK 09/01 Q1025 NOSIG RMK RWY17L 36008KT RWY05 01008KT 290V060 RWY23 03008KT 360V100
Conditions at: LTBA (ISTANBUL/ATATURK, TR) observed 1520 UTC 17 February 2019
Temperature: 9.0°C (48°F)
Dewpoint: 1.0°C (34°F) [RH = 57%]
Pressure (altimeter): 30.27 inches Hg (1025.0 mb)
Winds: from the NNE (20 degrees) at 8 MPH (7 knots; 3.6 m/s)
Visibility: 6 or more miles (10+ km)
Ceiling: ceiling and visibility are OK
Clouds: unknown
Weather: no significant weather observed at this time

METAR text: LTBA 171450Z 25004KT 230V290 CAVOK 08/01 Q1025 NOSIG RMK RWY17L 02008KT 350V070 RWY05 24001KT RWY23 21005KT
Conditions at: LTBA (ISTANBUL/ATATURK, TR) observed 1450 UTC 17 February 2019
Temperature: 8.0°C (46°F)
Dewpoint: 1.0°C (34°F) [RH = 61%]
Pressure (altimeter): 30.27 inches Hg (1025.0 mb)
Winds: from the WSW (250 degrees) at 5 MPH (4 knots; 2.1 m/s)
Visibility: 6 or more miles (10+ km)
Ceiling: ceiling and visibility are OK
Clouds: unknown
Weather: no significant weather observed at this time

METAR text: LTBA 171420Z 24006KT CAVOK 08/01 Q1025 NOSIG RMK RWY17L 23007KT 190V340 RWY05 VRB01KT RWY23 23007KT
Conditions at: LTBA (ISTANBUL/ATATURK, TR) observed 1420 UTC 17 February 2019
Temperature: 8.0°C (46°F)
Dewpoint: 1.0°C (34°F) [RH = 61%]
Pressure (altimeter): 30.27 inches Hg (1025.0 mb)
Winds: from the WSW (240 degrees) at 7 MPH (6 knots; 3.1 m/s)
Visibility: 6 or more miles (10+ km)
Ceiling: ceiling and visibility are OK
Clouds: unknown
Weather: no significant weather observed at this time

METAR text: LTBA 171350Z 23006KT 200V270 CAVOK 08/01 Q1025 NOSIG RMK RWY17L 25005KT 200V320 RWY05 VRB01KT RWY23 23006KT
Conditions at: LTBA (ISTANBUL/ATATURK, TR) observed 1350 UTC 17 February 2019
Temperature: 8.0°C (46°F)
Dewpoint: 1.0°C (34°F) [RH = 61%]
Pressure (altimeter): 30.27 inches Hg (1025.0 mb)
Winds: from the SW (230 degrees) at 7 MPH (6 knots; 3.1 m/s)
Visibility: 6 or more miles (10+ km)
Ceiling: ceiling and visibility are OK
Clouds: unknown
Weather: no significant weather observed at this time

METAR text: LTBA 171320Z 23006KT 200V300 CAVOK 09/01 Q1026 NOSIG RMK RWY17L 23005G16KT 190V270 RWY05 00000KT RWY23 21006KT 180V240
Conditions at: LTBA (ISTANBUL/ATATURK, TR) observed 1320 UTC 17 February 2019
Temperature: 9.0°C (48°F)
Dewpoint: 1.0°C (34°F) [RH = 57%]
Pressure (altimeter): 30.30 inches Hg (1026.0 mb)
Winds: from the SW (230 degrees) at 7 MPH (6 knots; 3.1 m/s)
Visibility: 6 or more miles (10+ km)
Ceiling: ceiling and visibility are OK
Clouds: unknown
Weather: no significant weather observed at this time

METAR text: LTBA 171250Z 21006KT 180V250 CAVOK 09/01 Q1026 NOSIG RMK RWY17L 23005KT 190V320 RWY05 00000KT RWY23 20005KT
Conditions at: LTBA (ISTANBUL/ATATURK, TR) observed 1250 UTC 17 February 2019
Temperature: 9.0°C (48°F)
Dewpoint: 1.0°C (34°F) [RH = 57%]
Pressure (altimeter): 30.30 inches Hg (1026.0 mb)
Winds: from the SSW (210 degrees) at 7 MPH (6 knots; 3.1 m/s)
Visibility: 6 or more miles (10+ km)
Ceiling: ceiling and visibility are OK
Clouds: unknown
Weather: no significant weather observed at this time

METAR text: LTBA 171220Z 21005KT 110V280 CAVOK 09/01 Q1026 NOSIG RMK RWY17L 19004KT 130V250 RWY05 19004KT 160V220 RWY23 22006KT 190V250
Conditions at: LTBA (ISTANBUL/ATATURK, TR) observed 1220 UTC 17 February 2019
Temperature: 9.0°C (48°F)
Dewpoint: 1.0°C (34°F) [RH = 57%]
Pressure (altimeter): 30.30 inches Hg (1026.0 mb)
Winds: from the SSW (210 degrees) at 6 MPH (5 knots; 2.6 m/s)
Visibility: 6 or more miles (10+ km)
Ceiling: ceiling and visibility are OK
Clouds: unknown
Weather: no significant weather observed at this time

METAR text: LTBA 171150Z 19006KT 150V230 CAVOK 08/00 Q1026 NOSIG RMK RWY17L 20005KT 180V260 RWY05 20005KT RWY23 21004KT 150V280
Conditions at: LTBA (ISTANBUL/ATATURK, TR) observed 1150 UTC 17 February 2019
Temperature: 8.0°C (46°F)
Dewpoint: 0.0°C (32°F) [RH = 57%]
Pressure (altimeter): 30.30 inches Hg (1026.0 mb)
Winds: from the S (190 degrees) at 7 MPH (6 knots; 3.1 m/s)
Visibility: 6 or more miles (10+ km)
Ceiling: ceiling and visibility are OK
Clouds: unknown
Weather: no significant weather observed at this time

METAR text: LTBA 171120Z 19007KT 150V250 CAVOK 09/01 Q1026 NOSIG RMK RWY17L 22007KT 180V260 RWY05 VRB02KT RWY23 16006KT
Conditions at: LTBA (ISTANBUL/ATATURK, TR) observed 1120 UTC 17 February 2019
Temperature: 9.0°C (48°F)
Dewpoint: 1.0°C (34°F) [RH = 57%]
Pressure (altimeter): 30.30 inches Hg (1026.0 mb)
Winds: from the S (190 degrees) at 8 MPH (7 knots; 3.6 m/s)
Visibility: 6 or more miles (10+ km)
Ceiling: ceiling and visibility are OK
Clouds: unknown
Weather: no significant weather observed at this time

METAR text: LTBA 171050Z 15008KT 110V200 9999 FEW030 08/M00 Q1027 NOSIG RMK RWY17L VRB02KT RWY05 13006KT RWY23 17007KT 140V200
Conditions at: LTBA (ISTANBUL/ATATURK, TR) observed 1050 UTC 17 February 2019
Temperature: 8.0°C (46°F)
Dewpoint: 0.0°C (32°F) [RH = 57%]
Pressure (altimeter): 30.32 inches Hg (1027.0 mb)
Winds: from the SSE (150 degrees) at 9 MPH (8 knots; 4.1 m/s)
Visibility: 6 or more miles (10+ km)
Ceiling: at least 12,000 feet AGL
Clouds: few clouds at 3000 feet AGL
Weather: no significant weather observed at this time

METAR text: LTBA 171020Z 13008KT 100V160 9999 FEW030 08/M01 Q1027 NOSIG RMK RWY17L 04006KT 340V100 RWY05 10005KT 060V120 RWY23 15007KT 120V180
Conditions at: LTBA (ISTANBUL/ATATURK, TR) observed 1020 UTC 17 February 2019
Temperature: 8.0°C (46°F)
Dewpoint: -1.0°C (30°F) [RH = 53%]
Pressure (altimeter): 30.32 inches Hg (1027.0 mb)
Winds: from the SE (130 degrees) at 9 MPH (8 knots; 4.1 m/s)
Visibility: 6 or more miles (10+ km)
Ceiling: at least 12,000 feet AGL
Clouds: few clouds at 3000 feet AGL
Weather: no significant weather observed at this time

METAR text: LTBA 170950Z 12007KT 050V150 9999 FEW033 SCT100 08/M00 Q1028 NOSIG RMK RWY17L 10004KT 020V140 RWY05 09006KT 060V130 RWY23 13007KT 100V170
Conditions at: LTBA (ISTANBUL/ATATURK, TR) observed 0950 UTC 17 February 2019
Temperature: 8.0°C (46°F)
Dewpoint: 0.0°C (32°F) [RH = 57%]
Pressure (altimeter): 30.35 inches Hg (1028.0 mb)
Winds: from the ESE (120 degrees) at 8 MPH (7 knots; 3.6 m/s)
Visibility: 6 or more miles (10+ km)
Ceiling: at least 12,000 feet AGL
Clouds: few clouds at 3300 feet AGL
scattered clouds at 10000 feet AGL
Weather: no significant weather observed at this time

METAR text: LTBA 170920Z 13010KT 090V160 9999 SCT030 09/M00 Q1028 NOSIG RMK RWY17L 05005KT 010V100 RWY05 09005KT RWY23 13008KT
Conditions at: LTBA (ISTANBUL/ATATURK, TR) observed 0920 UTC 17 February 2019
Temperature: 9.0°C (48°F)
Dewpoint: 0.0°C (32°F) [RH = 53%]
Pressure (altimeter): 30.35 inches Hg (1028.0 mb)
Winds: from the SE (130 degrees) at 12 MPH (10 knots; 5.1 m/s)
Visibility: 6 or more miles (10+ km)
Ceiling: at least 12,000 feet AGL
Clouds: scattered clouds at 3000 feet AGL
Weather: no significant weather observed at this time

METAR text: LTBA 170850Z 11008KT 070V150 9999 SCT033 08/M01 Q1028 NOSIG RMK RWY17L 08004KT 030V140 RWY05 09006KT 060V130 RWY23 12008KT
Conditions at: LTBA (ISTANBUL/ATATURK, TR) observed 0850 UTC 17 February 2019
Temperature: 8.0°C (46°F)
Dewpoint: -1.0°C (30°F) [RH = 53%]
Pressure (altimeter): 30.35 inches Hg (1028.0 mb)
Winds: from the ESE (110 degrees) at 9 MPH (8 knots; 4.1 m/s)
Visibility: 6 or more miles (10+ km)
Ceiling: at least 12,000 feet AGL
Clouds: scattered clouds at 3300 feet AGL
Weather: no significant weather observed at this time

METAR text: LTBA 170820Z 09007KT 050V120 9999 BKN033 07/M01 Q1028 NOSIG RMK RWY17L 06006KT 020V100 RWY05 09006KT 060V120 RWY23 09006KT 060V140
Conditions at: LTBA (ISTANBUL/ATATURK, TR) observed 0820 UTC 17 February 2019
Temperature: 7.0°C (45°F)
Dewpoint: -1.0°C (30°F) [RH = 57%]
Pressure (altimeter): 30.35 inches Hg (1028.0 mb)
Winds: from the E (90 degrees) at 8 MPH (7 knots; 3.6 m/s)
Visibility: 6 or more miles (10+ km)
Ceiling: 3300 feet AGL
Clouds: broken clouds at 3300 feet AGL
Weather: no significant weather observed at this time

METAR text: LTBA 170750Z 10007KT 050V140 9999 BKN033 07/M01 Q1028 NOSIG RMK RWY17L VRB03KT RWY05 08007KT RWY23 10006KT 050V120
Conditions at: LTBA (ISTANBUL/ATATURK, TR) observed 0750 UTC 17 February 2019
Temperature: 7.0°C (45°F)
Dewpoint: -1.0°C (30°F) [RH = 57%]
Pressure (altimeter): 30.35 inches Hg (1028.0 mb)
Winds: from the E (100 degrees) at 8 MPH (7 knots; 3.6 m/s)
Visibility: 6 or more miles (10+ km)
Ceiling: 3300 feet AGL
Clouds: broken clouds at 3300 feet AGL
Weather: no significant weather observed at this time

METAR text: LTBA 170720Z 11008KT 040V160 9999 BKN033 07/M01 Q1028 NOSIG RMK RWY17L 05005KT 020V090 RWY05 07005KT 040V210 RWY23 09005KT 020V120
Conditions at: LTBA (ISTANBUL/ATATURK, TR) observed 0720 UTC 17 February 2019
Temperature: 7.0°C (45°F)
Dewpoint: -1.0°C (30°F) [RH = 57%]
Pressure (altimeter): 30.35 inches Hg (1028.0 mb)
Winds: from the ESE (110 degrees) at 9 MPH (8 knots; 4.1 m/s)
Visibility: 6 or more miles (10+ km)
Ceiling: 3300 feet AGL
Clouds: broken clouds at 3300 feet AGL
Weather: no significant weather observed at this time

METAR text: LTBA 170650Z 08007KT 030V170 9999 BKN033 08/M01 Q1028 NOSIG RMK RWY17L 05004KT 010V110 RWY05 04005KT RWY23 07007KT 040V130
Conditions at: LTBA (ISTANBUL/ATATURK, TR) observed 0650 UTC 17 February 2019
Temperature: 8.0°C (46°F)
Dewpoint: -1.0°C (30°F) [RH = 53%]
Pressure (altimeter): 30.35 inches Hg (1028.0 mb)
Winds: from the E (80 degrees) at 8 MPH (7 knots; 3.6 m/s)
Visibility: 6 or more miles (10+ km)
Ceiling: 3300 feet AGL
Clouds: broken clouds at 3300 feet AGL
Weather: no significant weather observed at this time

METAR text: LTBA 170620Z 12008KT 040V160 9999 BKN034 07/M02 Q1028 NOSIG RMK RWY17L 07004KT 010V100 RWY05 06005KT 020V100 RWY23 08006KT 050V120
Conditions at: LTBA (ISTANBUL/ATATURK, TR) observed 0620 UTC 17 February 2019
Temperature: 7.0°C (45°F)
Dewpoint: -2.0°C (28°F) [RH = 53%]
Pressure (altimeter): 30.35 inches Hg (1028.0 mb)
Winds: from the ESE (120 degrees) at 9 MPH (8 knots; 4.1 m/s)
Visibility: 6 or more miles (10+ km)
Ceiling: 3400 feet AGL
Clouds: broken clouds at 3400 feet AGL
Weather: no significant weather observed at this time

METAR text: LTBA 170550Z 10007KT 040V190 9999 BKN034 07/M01 Q1028 NOSIG RMK RWY17L 02006KT RWY05 08005KT RWY23 09006KT
Conditions at: LTBA (ISTANBUL/ATATURK, TR) observed 0550 UTC 17 February 2019
Temperature: 7.0°C (45°F)
Dewpoint: -1.0°C (30°F) [RH = 57%]
Pressure (altimeter): 30.35 inches Hg (1028.0 mb)
Winds: from the E (100 degrees) at 8 MPH (7 knots; 3.6 m/s)
Visibility: 6 or more miles (10+ km)
Ceiling: 3400 feet AGL
Clouds: broken clouds at 3400 feet AGL
Weather: no significant weather observed at this time

METAR text: LTBA 170520Z 03005KT 9999 OVC034 07/M02 Q1028 NOSIG RMK RWY17L 07004KT 020V130 RWY05 04005KT 360V070 RWY23 05005KT
Conditions at: LTBA (ISTANBUL/ATATURK, TR) observed 0520 UTC 17 February 2019
Temperature: 7.0°C (45°F)
Dewpoint: -2.0°C (28°F) [RH = 53%]
Pressure (altimeter): 30.35 inches Hg (1028.0 mb)
Winds: from the NNE (30 degrees) at 6 MPH (5 knots; 2.6 m/s)
Visibility: 6 or more miles (10+ km)
Ceiling: 3400 feet AGL
Clouds: overcast cloud deck at 3400 feet AGL
Weather: no significant weather observed at this time

METAR text: LTBA 170450Z 08006KT 040V110 9999 OVC034 06/M02 Q1028 NOSIG RMK RWY17L 08004KT 060V120 RWY05 03005KT RWY23 05005KT
Conditions at: LTBA (ISTANBUL/ATATURK, TR) observed 0450 UTC 17 February 2019
Temperature: 6.0°C (43°F)
Dewpoint: -2.0°C (28°F) [RH = 56%]
Pressure (altimeter): 30.35 inches Hg (1028.0 mb)
Winds: from the E (80 degrees) at 7 MPH (6 knots; 3.1 m/s)
Visibility: 6 or more miles (10+ km)
Ceiling: 3400 feet AGL
Clouds: overcast cloud deck at 3400 feet AGL
Weather: no significant weather observed at this time

METAR text: LTBA 170420Z 07005KT 020V150 9999 OVC033 07/M02 Q1028 NOSIG RMK RWY17L 08004KT RWY05 06006KT RWY23 08004KT 060V120
Conditions at: LTBA (ISTANBUL/ATATURK, TR) observed 0420 UTC 17 February 2019
Temperature: 7.0°C (45°F)
Dewpoint: -2.0°C (28°F) [RH = 53%]
Pressure (altimeter): 30.35 inches Hg (1028.0 mb)
Winds: from the ENE (70 degrees) at 6 MPH (5 knots; 2.6 m/s)
Visibility: 6 or more miles (10+ km)
Ceiling: 3300 feet AGL
Clouds: overcast cloud deck at 3300 feet AGL
Weather: no significant weather observed at this time

METAR text: LTBA 170350Z 06005KT 020V130 9999 OVC032 06/M02 Q1027 NOSIG RMK RWY17L VRB02KT RWY05 05003KT 360V060 RWY23 07005KT
Conditions at: LTBA (ISTANBUL/ATATURK, TR) observed 0350 UTC 17 February 2019
Temperature: 6.0°C (43°F)
Dewpoint: -2.0°C (28°F) [RH = 56%]
Pressure (altimeter): 30.32 inches Hg (1027.0 mb)
Winds: from the ENE (60 degrees) at 6 MPH (5 knots; 2.6 m/s)
Visibility: 6 or more miles (10+ km)
Ceiling: 3200 feet AGL
Clouds: overcast cloud deck at 3200 feet AGL
Weather: no significant weather observed at this time

METAR text: LTBA 170320Z 07005KT 030V120 9999 OVC032 06/M02 Q1028 NOSIG RMK RWY17L VRB02KT RWY05 06005KT RWY23 08005KT
Conditions at: LTBA (ISTANBUL/ATATURK, TR) observed 0320 UTC 17 February 2019
Temperature: 6.0°C (43°F)
Dewpoint: -2.0°C (28°F) [RH = 56%]
Pressure (altimeter): 30.35 inches Hg (1028.0 mb)
Winds: from the ENE (70 degrees) at 6 MPH (5 knots; 2.6 m/s)
Visibility: 6 or more miles (10+ km)
Ceiling: 3200 feet AGL
Clouds: overcast cloud deck at 3200 feet AGL
Weather: no significant weather observed at this time

METAR text: LTBA 170250Z 06005KT 030V090 9999 OVC033 06/M02 Q1028 NOSIG RMK RWY17L 05003KT 010V100 RWY05 05006KT RWY23 07006KT 050V110
Conditions at: LTBA (ISTANBUL/ATATURK, TR) observed 0250 UTC 17 February 2019
Temperature: 6.0°C (43°F)
Dewpoint: -2.0°C (28°F) [RH = 56%]
Pressure (altimeter): 30.35 inches Hg (1028.0 mb)
Winds: from the ENE (60 degrees) at 6 MPH (5 knots; 2.6 m/s)
Visibility: 6 or more miles (10+ km)
Ceiling: 3300 feet AGL
Clouds: overcast cloud deck at 3300 feet AGL
Weather: no significant weather observed at this time

METAR text: LTBA 170220Z 06006KT 040V110 9999 BKN032 06/M02 Q1028 NOSIG RMK RWY17L 06003KT 030V090 RWY05 04005KT RWY23 07007KT
Conditions at: LTBA (ISTANBUL/ATATURK, TR) observed 0220 UTC 17 February 2019
Temperature: 6.0°C (43°F)
Dewpoint: -2.0°C (28°F) [RH = 56%]
Pressure (altimeter): 30.35 inches Hg (1028.0 mb)
Winds: from the ENE (60 degrees) at 7 MPH (6 knots; 3.1 m/s)
Visibility: 6 or more miles (10+ km)
Ceiling: 3200 feet AGL
Clouds: broken clouds at 3200 feet AGL
Weather: no significant weather observed at this time

METAR text: LTBA 170150Z 03006KT 340V080 9999 BKN032 06/M02 Q1028 NOSIG RMK RWY17L 04004KT 010V080 RWY05 04006KT RWY23 05006KT 010V090
Conditions at: LTBA (ISTANBUL/ATATURK, TR) observed 0150 UTC 17 February 2019
Temperature: 6.0°C (43°F)
Dewpoint: -2.0°C (28°F) [RH = 56%]
Pressure (altimeter): 30.35 inches Hg (1028.0 mb)
Winds: from the NNE (30 degrees) at 7 MPH (6 knots; 3.1 m/s)
Visibility: 6 or more miles (10+ km)
Ceiling: 3200 feet AGL
Clouds: broken clouds at 3200 feet AGL
Weather: no significant weather observed at this time

METAR text: LTBA 170120Z 05006KT 9999 OVC032 06/M02 Q1028 NOSIG RMK RWY17L 02005KT RWY05 03007KT RWY23 04007KT
Conditions at: LTBA (ISTANBUL/ATATURK, TR) observed 0120 UTC 17 February 2019
Temperature: 6.0°C (43°F)
Dewpoint: -2.0°C (28°F) [RH = 56%]
Pressure (altimeter): 30.35 inches Hg (1028.0 mb)
Winds: from the NE (50 degrees) at 7 MPH (6 knots; 3.1 m/s)
Visibility: 6 or more miles (10+ km)
Ceiling: 3200 feet AGL
Clouds: overcast cloud deck at 3200 feet AGL
Weather: no significant weather observed at this time

METAR text: LTBA 170050Z 02006KT 9999 BKN035 06/M00 Q1028 NOSIG RMK RWY17L 02005KT RWY05 01007KT RWY23 03007KT
Conditions at: LTBA (ISTANBUL/ATATURK, TR) observed 0050 UTC 17 February 2019
Temperature: 6.0°C (43°F)
Dewpoint: 0.0°C (32°F) [RH = 65%]
Pressure (altimeter): 30.35 inches Hg (1028.0 mb)
Winds: from the NNE (20 degrees) at 7 MPH (6 knots; 3.1 m/s)
Visibility: 6 or more miles (10+ km)
Ceiling: 3500 feet AGL
Clouds: broken clouds at 3500 feet AGL
Weather: no significant weather observed at this time

METAR text: LTBA 170020Z 01007KT 350V050 9999 BKN034 06/M01 Q1028 NOSIG RMK RWY17L 02005KT RWY05 01007KT RWY23 03007KT 350V050
Conditions at: LTBA (ISTANBUL/ATATURK, TR) observed 0020 UTC 17 February 2019
Temperature: 6.0°C (43°F)
Dewpoint: -1.0°C (30°F) [RH = 61%]
Pressure (altimeter): 30.35 inches Hg (1028.0 mb)
Winds: from the N (10 degrees) at 8 MPH (7 knots; 3.6 m/s)
Visibility: 6 or more miles (10+ km)
Ceiling: 3400 feet AGL
Clouds: broken clouds at 3400 feet AGL
Weather: no significant weather observed at this time

METAR text: LTBA 162350Z 02007KT 350V050 9999 BKN034 06/M00 Q1028 NOSIG RMK RWY17L 02005KT RWY05 01007KT RWY23 04008KT
Conditions at: LTBA (ISTANBUL/ATATURK, TR) observed 2350 UTC 16 February 2019
Temperature: 6.0°C (43°F)
Dewpoint: 0.0°C (32°F) [RH = 65%]
Pressure (altimeter): 30.35 inches Hg (1028.0 mb)
Winds: from the NNE (20 degrees) at 8 MPH (7 knots; 3.6 m/s)
Visibility: 6 or more miles (10+ km)
Ceiling: 3400 feet AGL
Clouds: broken clouds at 3400 feet AGL
Weather: no significant weather observed at this time

METAR text: LTBA 162320Z 02007KT 310V070 9999 BKN033 06/M01 Q1029 NOSIG RMK RWY17L 03004KT 360V060 RWY05 01007KT 320V050 RWY23 03007KT
Conditions at: LTBA (ISTANBUL/ATATURK, TR) observed 2320 UTC 16 February 2019
Temperature: 6.0°C (43°F)
Dewpoint: -1.0°C (30°F) [RH = 61%]
Pressure (altimeter): 30.38 inches Hg (1029.0 mb)
Winds: from the NNE (20 degrees) at 8 MPH (7 knots; 3.6 m/s)
Visibility: 6 or more miles (10+ km)
Ceiling: 3300 feet AGL
Clouds: broken clouds at 3300 feet AGL
Weather: no significant weather observed at this time

METAR text: LTBA 162250Z 02007KT 330V070 9999 BKN036 07/01 Q1029 NOSIG RMK RWY17L 04005KT 360V070 RWY05 02007KT RWY23 03007KT
Conditions at: LTBA (ISTANBUL/ATATURK, TR) observed 2250 UTC 16 February 2019
Temperature: 7.0°C (45°F)
Dewpoint: 1.0°C (34°F) [RH = 66%]
Pressure (altimeter): 30.38 inches Hg (1029.0 mb)
Winds: from the NNE (20 degrees) at 8 MPH (7 knots; 3.6 m/s)
Visibility: 6 or more miles (10+ km)
Ceiling: 3600 feet AGL
Clouds: broken clouds at 3600 feet AGL
Weather: no significant weather observed at this time

METAR text: LTBA 162220Z 02007KT 9999 BKN033 06/01 Q1029 NOSIG RMK RWY17L 02007KT RWY05 02007KT RWY23 04007KT
Conditions at: LTBA (ISTANBUL/ATATURK, TR) observed 2220 UTC 16 February 2019
Temperature: 6.0°C (43°F)
Dewpoint: 1.0°C (34°F) [RH = 70%]
Pressure (altimeter): 30.38 inches Hg (1029.0 mb)
Winds: from the NNE (20 degrees) at 8 MPH (7 knots; 3.6 m/s)
Visibility: 6 or more miles (10+ km)
Ceiling: 3300 feet AGL
Clouds: broken clouds at 3300 feet AGL
Weather: no significant weather observed at this time

METAR text: LTBA 162150Z 02008KT 360V080 9999 BKN033 07/01 Q1029 NOSIG RMK RWY17L 03006KT 360V060 RWY05 02007KT RWY23 05007KT 020V080
Conditions at: LTBA (ISTANBUL/ATATURK, TR) observed 2150 UTC 16 February 2019
Temperature: 7.0°C (45°F)
Dewpoint: 1.0°C (34°F) [RH = 66%]
Pressure (altimeter): 30.38 inches Hg (1029.0 mb)
Winds: from the NNE (20 degrees) at 9 MPH (8 knots; 4.1 m/s)
Visibility: 6 or more miles (10+ km)
Ceiling: 3300 feet AGL
Clouds: broken clouds at 3300 feet AGL
Weather: no significant weather observed at this time

METAR text: LTBA 162120Z 02007KT 9999 BKN030 06/01 Q1029 NOSIG RMK RWY17L 02006KT RWY05 03008KT RWY23 05008KT
Conditions at: LTBA (ISTANBUL/ATATURK, TR) observed 2120 UTC 16 February 2019
Temperature: 6.0°C (43°F)
Dewpoint: 1.0°C (34°F) [RH = 70%]
Pressure (altimeter): 30.38 inches Hg (1029.0 mb)
Winds: from the NNE (20 degrees) at 8 MPH (7 knots; 3.6 m/s)
Visibility: 6 or more miles (10+ km)
Ceiling: 3000 feet AGL
Clouds: broken clouds at 3000 feet AGL
Weather: no significant weather observed at this time

METAR text: LTBA 162050Z 02009KT 9999 BKN036 06/01 Q1029 NOSIG RMK RWY17L 03006KT RWY05 02008KT RWY23 05007KT
Conditions at: LTBA (ISTANBUL/ATATURK, TR) observed 2050 UTC 16 February 2019
Temperature: 6.0°C (43°F)
Dewpoint: 1.0°C (34°F) [RH = 70%]
Pressure (altimeter): 30.38 inches Hg (1029.0 mb)
Winds: from the NNE (20 degrees) at 10 MPH (9 knots; 4.6 m/s)
Visibility: 6 or more miles (10+ km)
Ceiling: 3600 feet AGL
Clouds: broken clouds at 3600 feet AGL
Weather: no significant weather observed at this time

Forecast for: LTBA (ISTANBUL/ATATURK, TR)
Text: TAF LTBA 180440Z 1806/1912 VRB02KT CAVOK
Forecast period: 0600 to 1900 UTC 18 February 2019
Forecast type: FROM: standard forecast or significant change
Winds: variable direction winds at 2 MPH (2 knots; 1.0 m/s)
Visibility: 6 or more miles 10+ km)
Ceiling: unknown
Clouds: missing
Weather: NSW  (no significant weather)
Text: BECMG 1819/1822 BKN008
Forecast period: 1900 to 2200 UTC 18 February 2019
Forecast type: BECOMING: Conditions expected to become as follows by 2200 UTC 18 February 2019
Winds: variable direction winds at 2 MPH (2 knots; 1.0 m/s)
Visibility: 6 or more miles 10+ km)
Ceiling: 800 feet AGL
Clouds: broken clouds at 800 feet AGL
Weather: NSW  (no significant weather)
Text: BECMG 1822/1824 OVC005
Forecast period: 2200 UTC 18 February 2019 to 0800 UTC 19 February 2019
Forecast type: BECOMING: Conditions expected to become as follows by 0000 UTC 19 February 2019
Winds: variable direction winds at 2 MPH (2 knots; 1.0 m/s)
Visibility: 6 or more miles 10+ km)
Ceiling: 500 feet AGL
Clouds: overcast cloud deck at 500 feet AGL
Weather: NSW  (no significant weather)
Text: PROB30 1901/1905 4000 BR OVC004
Forecast period: 0100 to 0500 UTC 19 February 2019
Forecast type: PROBABLE: 30 percent likelihood of the following during this time
Visibility: 2.49 miles (4.01 km)
Ceiling: 400 feet AGL
Clouds: overcast cloud deck at 400 feet AGL
Weather: BR  (mist)
Text: BECMG 1908/1911 03012KT CAVOK
Forecast period: 0800 to 1200 UTC 19 February 2019
Forecast type: BECOMING: Conditions expected to become as follows by 1100 UTC 19 February 2019
Winds: from the NNE (30 degrees) at 14 MPH (12 knots; 6.2 m/s)
Visibility: 6 or more miles 10+ km)
Ceiling: unknown
Clouds: missing
Weather: NSW  (no significant weather)